Seabourn Pride — C6FR5 — position and weather

sailwx.info

Track history (hours):
 
Tides and Currents Weather Stations Pressure Air Temp Water Temp Dewpoint Dewpoint Depression Visibility Wind Speed Wind Dir Waves Ship Positions

Seabourn Pride

Operator: Cunard Seabourn

Last reported at 2018-May-26 13:27 UTC. Time now 2018-May-27 09:50 UTC.
Position N 43°44' E 007°26'.

Length 134 m; draft 5.7 m.

Type: Passenger vessel. MMSI: 311084000.

Date/timePositionNaut miles runAvg speedWind from/ knotsBaromVisibWave heightAir tempDewpointWater temp
2018-May-26 13:27N 43°44' E 007°26'0 0.0
2018-May-26 12:45N 43°44' E 007°26'0 0.0
2018-May-26 12:21N 43°44' E 007°26'0 0.0
2018-May-26 11:51N 43°44' E 007°26'0 0.0
2018-May-26 11:30N 43°44' E 007°26'0 0.0
2018-May-26 10:50N 43°44' E 007°26'0 0.0
2018-May-26 10:23N 43°44' E 007°26'0 0.0
2018-May-26 09:56N 43°44' E 007°26'0 0.0
2018-May-26 09:19N 43°44' E 007°26'0 0.0
2018-May-26 08:57N 43°44' E 007°26'0 0.0
2018-May-26 08:30N 43°44' E 007°26'0 0.0
2018-May-26 07:27N 43°44' E 007°26'0 0.0
2018-May-26 05:03N 43°44' E 007°26'0 0.0
2018-May-26 04:54N 43°44' E 007°26'0 0.0
2018-May-26 04:30N 43°44' E 007°26'0 0.1
2018-May-26 04:00N 43°44' E 007°26'2 4.8
2018-May-26 03:30N 43°41' E 007°27'3 5.5
2018-May-26 03:00N 43°38' E 007°26'3 6.3
2018-May-26 02:30N 43°35' E 007°25'5 6.2
2018-May-26 01:44N 43°31' E 007°23'2 6.9
2018-May-26 01:30N 43°29' E 007°22'4 7.1
2018-May-26 01:00N 43°26' E 007°21'3 6.6
2018-May-26 00:30N 43°23' E 007°19'3 6.4
2018-May-26 00:00N 43°22' E 007°15'3 6.7
2018-May-25 23:30N 43°21' E 007°10'3 6.7
2018-May-25 23:00N 43°21' E 007°06'5 6.5
2018-May-25 22:14N 43°20' E 006°59'3 6.5
2018-May-25 21:50N 43°19' E 006°55'2 5.5
2018-May-25 21:30N 43°19' E 006°53'8 7.3
2018-May-25 20:28N 43°18' E 006°43'3 7.1
2018-May-25 20:00N 43°17' E 006°38'1 0.8
2018-May-25 19:10N 43°17' E 006°37'0 0.0
2018-May-25 18:55N 43°17' E 006°37'0 0.0
2018-May-25 17:25N 43°17' E 006°37'9 0.6
2018-May-25 02:54N 43°15' E 006°49'208 4.1
2018-May-23 00:07N 41°26' E 002°49'2 8.3
2018-May-22 23:54N 41°25' E 002°47'7 8.2
2018-May-22 23:06N 41°22' E 002°40'4 8.2
2018-May-22 22:36N 41°19' E 002°35'1 8.1
2018-May-22 22:29N 41°19' E 002°34'4 8.0
2018-May-22 21:56N 41°17' E 002°29'5 8.5
2018-May-22 21:23N 41°18' E 002°23'3 8.6
2018-May-22 21:01N 41°19' E 002°19'4 8.5
2018-May-22 20:31N 41°20' E 002°13'3 0.2
2018-May-22 04:35N 41°22' E 002°11'0 0.3
2018-May-22 04:30N 41°22' E 002°11'2 3.6
2018-May-22 04:00N 41°21' E 002°12'3 6.2
2018-May-22 03:30N 41°19' E 002°16'3 5.8
2018-May-22 03:00N 41°19' E 002°19'3 6.2
2018-May-22 02:30N 41°18' E 002°23'3 6.2
2018-May-22 02:00N 41°17' E 002°27'6 5.8
2018-May-22 01:02N 41°19' E 002°34'1 6.1
2018-May-22 00:57N 41°19' E 002°35'3 6.1
2018-May-22 00:30N 41°20' E 002°38'4 6.1
2018-May-21 23:55N 41°22' E 002°42'4 6.1
2018-May-21 23:20N 41°24' E 002°46'222 4.4
2018-May-19 20:43N 43°25' E 006°59'2 8.9
2018-May-19 20:30N 43°27' E 006°59'4 7.5
2018-May-19 20:00N 43°31' E 007°00'1 2.1
2018-May-19 19:20N 43°32' E 007°01'0 0.0
2018-May-19 18:53N 43°32' E 007°01'0 0.0
2018-May-19 18:28N 43°32' E 007°01'0 0.0
2018-May-19 17:55N 43°32' E 007°01'0 0.0
2018-May-19 17:28N 43°32' E 007°01'0 0.0
2018-May-19 16:58N 43°32' E 007°01'0 0.0
2018-May-19 16:28N 43°32' E 007°01'0 0.0
2018-May-19 15:58N 43°32' E 007°01'0 0.0
2018-May-19 15:28N 43°32' E 007°01'0 0.0
2018-May-19 14:58N 43°32' E 007°01'0 0.0
2018-May-19 14:28N 43°32' E 007°01'0 0.0
2018-May-19 13:49N 43°32' E 007°01'0 0.0
2018-May-19 13:19N 43°32' E 007°01'0 0.0
2018-May-19 12:52N 43°32' E 007°01'0 0.0
2018-May-19 12:22N 43°32' E 007°01'0 0.0
2018-May-19 11:58N 43°32' E 007°01'0 0.0
2018-May-19 11:27N 43°32' E 007°01'0 0.0
2018-May-19 10:59N 43°32' E 007°01'0 0.0
2018-May-19 10:29N 43°32' E 007°01'0 0.0
2018-May-19 09:59N 43°32' E 007°01'0 0.0
2018-May-19 09:29N 43°32' E 007°01'0 0.0
2018-May-19 08:59N 43°32' E 007°01'0 0.0
2018-May-19 08:29N 43°32' E 007°01'0 0.0
2018-May-19 07:47N 43°32' E 007°01'0 0.0
2018-May-19 07:20N 43°32' E 007°01'0 0.0
2018-May-19 06:50N 43°32' E 007°01'0 0.0
2018-May-19 06:20N 43°32' E 007°01'0 0.0
2018-May-19 05:53N 43°32' E 007°01'0 0.0
2018-May-19 05:28N 43°32' E 007°01'1 3.0
2018-May-19 05:00N 43°31' E 007°00'3 5.8
2018-May-19 04:30N 43°28' E 007°02'3 6.0
2018-May-19 04:00N 43°26' E 007°05'3 6.7
2018-May-19 03:30N 43°24' E 007°08'4 7.3
2018-May-19 03:00N 43°21' E 007°12'1 2.5
2018-May-19 02:30N 43°21' E 007°13'0 0.6
2018-May-19 02:00N 43°21' E 007°14'2 4.3
2018-May-19 01:30N 43°23' E 007°14'3 6.0
2018-May-19 01:00N 43°26' E 007°13'2 3.9
2018-May-19 00:30N 43°28' E 007°13'3 5.8
2018-May-19 00:00N 43°30' E 007°16'4 7.4
2018-May-18 23:30N 43°33' E 007°19'4 7.2
2018-May-18 23:00N 43°36' E 007°22'4 7.8
2018-May-18 22:29N 43°39' E 007°24'4 8.0
2018-May-18 22:00N 43°43' E 007°27'1 2.2
2018-May-18 21:24N 43°44' E 007°26'0 0.0
2018-May-18 21:00N 43°44' E 007°26'0 0.0
2018-May-18 20:18N 43°44' E 007°26'0 0.0
2018-May-18 19:54N 43°44' E 007°26'0 0.0
2018-May-18 17:08N 43°44' E 007°26'0 0.0
2018-May-18 16:50N 43°44' E 007°26'0 0.0
2018-May-18 16:26N 43°44' E 007°26'0 0.0
2018-May-18 15:20N 43°44' E 007°26'0 0.0
2018-May-18 15:00N 43°44' E 007°26'39 3.0
2018-May-18 02:05N 43°51' E 008°19'1 9.8
2018-May-18 02:00N 43°52' E 008°20'5 9.6
2018-May-18 01:29N 43°55' E 008°25'4 9.4
2018-May-18 01:00N 43°58' E 008°30'5 9.4
2018-May-18 00:30N 44°00' E 008°36'5 9.4
2018-May-18 00:00N 44°03' E 008°41'5 9.1
2018-May-17 23:30N 44°04' E 008°47'5 9.0
2018-May-17 23:00N 44°06' E 008°53'5 9.1
2018-May-17 22:30N 44°08' E 008°58'5 9.4
2018-May-17 22:00N 44°10' E 009°04'5 9.2
2018-May-17 21:30N 44°12' E 009°10'5 9.2
2018-May-17 21:00N 44°14' E 009°16'3 6.5
2018-May-17 20:30N 44°17' E 009°17'3 2.0
2018-May-17 18:44N 44°20' E 009°14'0 0.0
2018-May-17 16:20N 44°20' E 009°14'0 0.0
2018-May-17 08:11N 44°20' E 009°14'0 0.0
2018-May-17 05:31N 44°20' E 009°14'0 0.0
2018-May-17 05:29N 44°20' E 009°14'4 3.4
2018-May-17 04:28N 44°17' E 009°18'3 6.8
2018-May-17 04:01N 44°15' E 009°20'4 7.0
2018-May-17 03:30N 44°12' E 009°22'4 7.2
2018-May-17 03:00N 44°08' E 009°24'4 7.5
2018-May-17 02:30N 44°05' E 009°26'4 7.7
2018-May-17 02:01N 44°01' E 009°28'4 8.5
2018-May-17 01:30N 43°58' E 009°31'5 9.3
2018-May-17 01:01N 43°54' E 009°34'5 9.1
2018-May-17 00:31N 43°50' E 009°38'4 8.8
2018-May-17 00:00N 43°46' E 009°40'4 8.7
2018-May-16 23:30N 43°41' E 009°40'4 8.5
2018-May-16 23:00N 43°37' E 009°40'4 8.4
2018-May-16 22:30N 43°33' E 009°41'4 8.7
2018-May-16 22:00N 43°29' E 009°43'4 9.0
2018-May-16 21:30N 43°25' E 009°45'4 8.9
2018-May-16 21:00N 43°21' E 009°47'4 8.3
2018-May-16 20:30N 43°17' E 009°51'4 8.2
2018-May-16 20:00N 43°14' E 009°55'4 8.3
2018-May-16 19:30N 43°11' E 009°59'4 8.0
2018-May-16 19:00N 43°09' E 010°03'4 8.0
2018-May-16 18:30N 43°06' E 010°07'5 8.2
2018-May-16 17:56N 43°02' E 010°10'4 8.5
2018-May-16 17:30N 42°59' E 010°13'  
Track history (hours):
 
Tides and Currents Weather Stations Pressure Air Temp Water Temp Dewpoint Dewpoint Depression Visibility Wind Speed Wind Dir Waves Ship Positions

Seabourn Pride

Operator: Cunard Seabourn

Last reported at 2018-May-26 13:27 UTC. Time now 2018-May-27 09:51 UTC.
Position N 43°44' E 007°26'.

Length 134 m; draft 5.7 m.

Type: Passenger vessel. MMSI: 311084000.

Date/timePositionNaut miles runAvg speedWind from/ knotsBaromVisibWave heightAir tempDewpointWater temp
2018-May-26 13:27N 43°44' E 007°26'0 0.0
2018-May-26 12:45N 43°44' E 007°26'0 0.0
2018-May-26 12:21N 43°44' E 007°26'0 0.0
2018-May-26 11:51N 43°44' E 007°26'0 0.0
2018-May-26 11:30N 43°44' E 007°26'0 0.0
2018-May-26 10:50N 43°44' E 007°26'0 0.0
2018-May-26 10:23N 43°44' E 007°26'0 0.0
2018-May-26 09:56N 43°44' E 007°26'0 0.0
2018-May-26 09:19N 43°44' E 007°26'0 0.0
2018-May-26 08:57N 43°44' E 007°26'0 0.0
2018-May-26 08:30N 43°44' E 007°26'0 0.0
2018-May-26 07:27N 43°44' E 007°26'0 0.0
2018-May-26 05:03N 43°44' E 007°26'0 0.0
2018-May-26 04:54N 43°44' E 007°26'0 0.0
2018-May-26 04:30N 43°44' E 007°26'0 0.1
2018-May-26 04:00N 43°44' E 007°26'2 4.8
2018-May-26 03:30N 43°41' E 007°27'3 5.5
2018-May-26 03:00N 43°38' E 007°26'3 6.3
2018-May-26 02:30N 43°35' E 007°25'5 6.2
2018-May-26 01:44N 43°31' E 007°23'2 6.9
2018-May-26 01:30N 43°29' E 007°22'4 7.1
2018-May-26 01:00N 43°26' E 007°21'3 6.6
2018-May-26 00:30N 43°23' E 007°19'3 6.4
2018-May-26 00:00N 43°22' E 007°15'3 6.7
2018-May-25 23:30N 43°21' E 007°10'3 6.7
2018-May-25 23:00N 43°21' E 007°06'5 6.5
2018-May-25 22:14N 43°20' E 006°59'3 6.5
2018-May-25 21:50N 43°19' E 006°55'2 5.5
2018-May-25 21:30N 43°19' E 006°53'8 7.3
2018-May-25 20:28N 43°18' E 006°43'3 7.1
2018-May-25 20:00N 43°17' E 006°38'1 0.8
2018-May-25 19:10N 43°17' E 006°37'0 0.0
2018-May-25 18:55N 43°17' E 006°37'0 0.0
2018-May-25 17:25N 43°17' E 006°37'9 0.6
2018-May-25 02:54N 43°15' E 006°49'208 4.1
2018-May-23 00:07N 41°26' E 002°49'2 8.3
2018-May-22 23:54N 41°25' E 002°47'7 8.2
2018-May-22 23:06N 41°22' E 002°40'4 8.2
2018-May-22 22:36N 41°19' E 002°35'1 8.1
2018-May-22 22:29N 41°19' E 002°34'4 8.0
2018-May-22 21:56N 41°17' E 002°29'5 8.5
2018-May-22 21:23N 41°18' E 002°23'3 8.6
2018-May-22 21:01N 41°19' E 002°19'4 8.5
2018-May-22 20:31N 41°20' E 002°13'3 0.2
2018-May-22 04:35N 41°22' E 002°11'0 0.3
2018-May-22 04:30N 41°22' E 002°11'2 3.6
2018-May-22 04:00N 41°21' E 002°12'3 6.2
2018-May-22 03:30N 41°19' E 002°16'3 5.8
2018-May-22 03:00N 41°19' E 002°19'3 6.2
2018-May-22 02:30N 41°18' E 002°23'3 6.2
2018-May-22 02:00N 41°17' E 002°27'6 5.8
2018-May-22 01:02N 41°19' E 002°34'1 6.1
2018-May-22 00:57N 41°19' E 002°35'3 6.1
2018-May-22 00:30N 41°20' E 002°38'4 6.1
2018-May-21 23:55N 41°22' E 002°42'4 6.1
2018-May-21 23:20N 41°24' E 002°46'222 4.4
2018-May-19 20:43N 43°25' E 006°59'2 8.9
2018-May-19 20:30N 43°27' E 006°59'4 7.5
2018-May-19 20:00N 43°31' E 007°00'1 2.1
2018-May-19 19:20N 43°32' E 007°01'0 0.0
2018-May-19 18:53N 43°32' E 007°01'0 0.0
2018-May-19 18:28N 43°32' E 007°01'0 0.0
2018-May-19 17:55N 43°32' E 007°01'0 0.0
2018-May-19 17:28N 43°32' E 007°01'0 0.0
2018-May-19 16:58N 43°32' E 007°01'0 0.0
2018-May-19 16:28N 43°32' E 007°01'0 0.0
2018-May-19 15:58N 43°32' E 007°01'0 0.0
2018-May-19 15:28N 43°32' E 007°01'0 0.0
2018-May-19 14:58N 43°32' E 007°01'0 0.0
2018-May-19 14:28N 43°32' E 007°01'0 0.0
2018-May-19 13:49N 43°32' E 007°01'0 0.0
2018-May-19 13:19N 43°32' E 007°01'0 0.0
2018-May-19 12:52N 43°32' E 007°01'0 0.0
2018-May-19 12:22N 43°32' E 007°01'0 0.0
2018-May-19 11:58N 43°32' E 007°01'0 0.0
2018-May-19 11:27N 43°32' E 007°01'0 0.0
2018-May-19 10:59N 43°32' E 007°01'0 0.0
2018-May-19 10:29N 43°32' E 007°01'0 0.0
2018-May-19 09:59N 43°32' E 007°01'0 0.0
2018-May-19 09:29N 43°32' E 007°01'0 0.0
2018-May-19 08:59N 43°32' E 007°01'0 0.0
2018-May-19 08:29N 43°32' E 007°01'0 0.0
2018-May-19 07:47N 43°32' E 007°01'0 0.0
2018-May-19 07:20N 43°32' E 007°01'0 0.0
2018-May-19 06:50N 43°32' E 007°01'0 0.0
2018-May-19 06:20N 43°32' E 007°01'0 0.0
2018-May-19 05:53N 43°32' E 007°01'0 0.0
2018-May-19 05:28N 43°32' E 007°01'1 3.0
2018-May-19 05:00N 43°31' E 007°00'3 5.8
2018-May-19 04:30N 43°28' E 007°02'3 6.0
2018-May-19 04:00N 43°26' E 007°05'3 6.7
2018-May-19 03:30N 43°24' E 007°08'4 7.3
2018-May-19 03:00N 43°21' E 007°12'1 2.5
2018-May-19 02:30N 43°21' E 007°13'0 0.6
2018-May-19 02:00N 43°21' E 007°14'2 4.3
2018-May-19 01:30N 43°23' E 007°14'3 6.0
2018-May-19 01:00N 43°26' E 007°13'2 3.9
2018-May-19 00:30N 43°28' E 007°13'3 5.8
2018-May-19 00:00N 43°30' E 007°16'4 7.4
2018-May-18 23:30N 43°33' E 007°19'4 7.2
2018-May-18 23:00N 43°36' E 007°22'4 7.8
2018-May-18 22:29N 43°39' E 007°24'4 8.0
2018-May-18 22:00N 43°43' E 007°27'1 2.2
2018-May-18 21:24N 43°44' E 007°26'0 0.0
2018-May-18 21:00N 43°44' E 007°26'0 0.0
2018-May-18 20:18N 43°44' E 007°26'0 0.0
2018-May-18 19:54N 43°44' E 007°26'0 0.0
2018-May-18 17:08N 43°44' E 007°26'0 0.0
2018-May-18 16:50N 43°44' E 007°26'0 0.0
2018-May-18 16:26N 43°44' E 007°26'0 0.0
2018-May-18 15:20N 43°44' E 007°26'0 0.0
2018-May-18 15:00N 43°44' E 007°26'39 3.0
2018-May-18 02:05N 43°51' E 008°19'1 9.8
2018-May-18 02:00N 43°52' E 008°20'5 9.6
2018-May-18 01:29N 43°55' E 008°25'4 9.4
2018-May-18 01:00N 43°58' E 008°30'5 9.4
2018-May-18 00:30N 44°00' E 008°36'5 9.4
2018-May-18 00:00N 44°03' E 008°41'5 9.1
2018-May-17 23:30N 44°04' E 008°47'5 9.0
2018-May-17 23:00N 44°06' E 008°53'5 9.1
2018-May-17 22:30N 44°08' E 008°58'5 9.4
2018-May-17 22:00N 44°10' E 009°04'5 9.2
2018-May-17 21:30N 44°12' E 009°10'5 9.2
2018-May-17 21:00N 44°14' E 009°16'3 6.5
2018-May-17 20:30N 44°17' E 009°17'3 2.0
2018-May-17 18:44N 44°20' E 009°14'0 0.0
2018-May-17 16:20N 44°20' E 009°14'0 0.0
2018-May-17 08:11N 44°20' E 009°14'0 0.0
2018-May-17 05:31N 44°20' E 009°14'0 0.0
2018-May-17 05:29N 44°20' E 009°14'4 3.4
2018-May-17 04:28N 44°17' E 009°18'3 6.8
2018-May-17 04:01N 44°15' E 009°20'4 7.0
2018-May-17 03:30N 44°12' E 009°22'4 7.2
2018-May-17 03:00N 44°08' E 009°24'4 7.5
2018-May-17 02:30N 44°05' E 009°26'4 7.7
2018-May-17 02:01N 44°01' E 009°28'4 8.5
2018-May-17 01:30N 43°58' E 009°31'5 9.3
2018-May-17 01:01N 43°54' E 009°34'5 9.1
2018-May-17 00:31N 43°50' E 009°38'4 8.8
2018-May-17 00:00N 43°46' E 009°40'4 8.7
2018-May-16 23:30N 43°41' E 009°40'4 8.5
2018-May-16 23:00N 43°37' E 009°40'4 8.4
2018-May-16 22:30N 43°33' E 009°41'4 8.7
2018-May-16 22:00N 43°29' E 009°43'4 9.0
2018-May-16 21:30N 43°25' E 009°45'4 8.9
2018-May-16 21:00N 43°21' E 009°47'4 8.3
2018-May-16 20:30N 43°17' E 009°51'4 8.2
2018-May-16 20:00N 43°14' E 009°55'4 8.3
2018-May-16 19:30N 43°11' E 009°59'4 8.0
2018-May-16 19:00N 43°09' E 010°03'4 8.0
2018-May-16 18:30N 43°06' E 010°07'5 8.2
2018-May-16 17:56N 43°02' E 010°10'4 8.5
2018-May-16 17:30N 42°59' E 010°13'  

Dump ship's entire track history